Swan Hill, Australia
Current Conditions -  °F | °C
As of 4:00 PM on Sunday 26 Oct 2014 (Local Time) from YMIA Reporting Station
Scattered Clouds Scattered Clouds  
Wind Chill: 75°   Ceiling: Unl
Heat Index: 75°   Visibility: 6mi
Dew Point: 55°   Wind: 5mph
Humidity: 50%   Direction: 60°ENE
Pressure: 29.83"   Gusts: NA
Location:  35.34°S, 143.56°E
Report Text: YMIA 260500Z AUTO 06004KT 9999 // SCT100 SCT115 24/13 Q1010
Loading
Personal Weather Stations






























Interactive Weather Map
Tropical Storm Tracking
New forecast layout! Learn more

10-Day Weather Forecast

Advertisements
Track Severe Weather on mobile